Time;durP1;ratioP1;P1;durP2;ratioP2;P2;SDS_P1;SDS_P2;PMS_P1;PMS_P2;Temp;Humidity;BMP_temperature;BMP_pressure;BME280_temperature;BME280_humidity;BME280_pressure;Samples;Min_cycle;Max_cycle;Signal;HPM_P1;HPM_P2
2022/08/11 00:02:22;;;;;;;;;;;563.20;2432.00;;;;;;5071177;28;19924;-57
2022/08/11 00:04:49;;;;;;;;;;;563.20;2432.00;;;;;;5071502;28;20389;-57
2022/08/11 00:07:14;;;;;;;;;;;538.50;2406.40;;;;;;5071580;28;19908;-55
2022/08/11 00:09:40;;;;;;;;;;;538.50;2406.40;;;;;;5070974;28;19939;-57
2022/08/11 00:12:13;;;;;;;;;;;538.50;2406.40;;;;;;5071221;28;19908;-56
2022/08/11 00:14:39;;;;;;;;;;;538.50;2406.40;;;;;;5070827;28;20003;-56
2022/08/11 00:17:07;;;;;;;;;;;538.40;2406.40;;;;;;5071362;28;19908;-57
2022/08/11 00:19:34;;;;;;;;;;;538.40;2406.40;;;;;;5071625;28;19999;-57
2022/08/11 00:22:00;;;;;;;;;;;538.40;2406.40;;;;;;5071220;28;19916;-55
2022/08/11 00:24:31;;;;;;;;;;;538.40;2406.40;;;;;;5071182;28;19934;-56
2022/08/11 00:26:57;;;;;;;;;;;538.40;2406.40;;;;;;5071214;28;20350;-56
2022/08/11 00:29:22;;;;;;;;;;;538.40;2406.40;;;;;;5071210;28;19982;-56
2022/08/11 00:31:50;;;;;;;;;;;538.30;2406.40;;;;;;5070974;28;19919;-54
2022/08/11 00:34:19;;;;;;;;;;;538.30;2406.40;;;;;;5071118;28;20481;-57
2022/08/11 00:37:08;;;;;;;;;;;538.30;2406.40;;;;;;5071170;28;20354;-56
2022/08/11 00:39:35;;;;;;;;;;;538.30;2406.40;;;;;;5028851;28;19913;-56
2022/08/11 00:42:01;;;;;;;;;;;538.20;2406.40;;;;;;5029121;28;19955;-56
2022/08/11 00:44:29;;;;;;;;;;;538.20;2406.40;;;;;;5028690;28;19913;-57
2022/08/11 00:47:04;;;;;;;;;;;538.20;2406.40;;;;;;5028754;28;19916;-56
2022/08/11 00:49:48;;;;;;;;;;;538.20;2406.40;;;;;;5028727;28;19913;-56
2022/08/11 00:52:25;;;;;;;;;;;538.20;2406.40;;;;;;5028562;28;19936;-56
2022/08/11 00:54:53;;;;;;;;;;;538.10;2406.40;;;;;;5028724;28;19952;-56
2022/08/11 00:57:37;;;;;;;;;;;538.10;2406.40;;;;;;5028759;28;20111;-55
2022/08/11 01:00:05;;;;;;;;;;;538.10;2406.40;;;;;;5028781;28;19916;-55
2022/08/11 01:02:45;;;;;;;;;;;538.10;2406.40;;;;;;5028686;28;20360;-57
2022/08/11 01:05:29;;;;;;;;;;;538.00;2406.40;;;;;;5028459;28;19913;-56
2022/08/11 01:07:55;;;;;;;;;;;538.00;2406.40;;;;;;5028692;28;20483;-57
2022/08/11 01:10:20;;;;;;;;;;;538.00;2406.40;;;;;;5028625;28;19987;-56
2022/08/11 01:12:46;;;;;;;;;;;538.00;2406.40;;;;;;5030710;28;20013;-56
2022/08/11 01:15:24;;;;;;;;;;;537.90;2406.40;;;;;;5032648;28;19952;-56
2022/08/11 01:17:52;;;;;;;;;;;537.90;2406.40;;;;;;5074397;28;20252;-56
2022/08/11 01:20:36;;;;;;;;;;;537.80;2406.40;;;;;;5074526;28;20453;-57
2022/08/11 01:23:20;;;;;;;;;;;537.80;2406.40;;;;;;5074666;28;19909;-57
2022/08/11 01:25:52;;;;;;;;;;;537.80;2406.40;;;;;;5074331;28;19908;-56
2022/08/11 01:28:31;;;;;;;;;;;537.80;2406.40;;;;;;5074294;28;19961;-56
2022/08/11 01:31:15;;;;;;;;;;;537.80;2406.40;;;;;;5074181;28;20013;-56
2022/08/11 01:33:55;;;;;;;;;;;537.60;2406.40;;;;;;5074326;28;19951;-57
2022/08/11 01:36:40;;;;;;;;;;;537.60;2406.40;;;;;;5074680;28;20274;-57
2022/08/11 01:39:24;;;;;;;;;;;537.60;2406.40;;;;;;5074224;28;19920;-56
2022/08/11 01:45:01;;;;;;;;;;;512.90;2380.80;;;;;;5074200;28;19919;-55
2022/08/11 01:47:50;;;;;;;;;;;512.90;2380.80;;;;;;5073940;28;19909;-55
2022/08/11 01:50:25;;;;;;;;;;;512.90;2380.80;;;;;;5073490;28;19917;-57
2022/08/11 01:53:02;;;;;;;;;;;512.90;2380.80;;;;;;5073519;28;19915;-56
2022/08/11 01:55:48;;;;;;;;;;;512.80;2380.80;;;;;;5073329;28;19908;-55
2022/08/11 01:58:20;;;;;;;;;;;512.80;2380.80;;;;;;5073741;28;20247;-56
2022/08/11 02:00:57;;;;;;;;;;;512.70;2380.80;;;;;;5073208;28;19917;-57
2022/08/11 02:03:26;;;;;;;;;;;512.60;2380.80;;;;;;5073592;28;19917;-56
2022/08/11 02:06:01;;;;;;;;;;;512.60;2380.80;;;;;;5074014;28;19916;-56
2022/08/11 02:08:34;;;;;;;;;;;512.60;2380.80;;;;;;5073555;28;19991;-56
2022/08/11 02:13:55;;;;;;;;;;;512.50;2380.80;;;;;;5073540;28;20377;-57
2022/08/11 02:16:27;;;;;;;;;;;512.50;2380.80;;;;;;5073694;28;19908;-55
2022/08/11 02:25:33;;;;;;;;;;;512.30;2380.80;;;;;;5073699;28;19954;-57
2022/08/11 02:28:08;;;;;;;;;;;512.30;2380.80;;;;;;5072648;28;19908;-56
2022/08/11 02:30:37;;;;;;;;;;;512.30;2380.80;;;;;;5073156;28;19966;-55
2022/08/11 02:33:24;;;;;;;;;;;512.30;2380.80;;;;;;5073451;28;19912;-57
2022/08/11 02:36:05;;;;;;;;;;;512.20;2380.80;;;;;;5073091;28;20381;-56
2022/08/11 02:38:50;;;;;;;;;;;512.20;2380.80;;;;;;5073103;28;20286;-57
2022/08/11 02:44:27;;;;;;;;;;;512.10;2380.80;;;;;;5073062;28;19954;-57
2022/08/11 02:47:18;;;;;;;;;;;512.10;2380.80;;;;;;5073028;28;19916;-55
2022/08/11 02:49:59;;;;;;;;;;;512.00;2380.80;;;;;;5048989;28;19924;-56
2022/08/11 02:52:30;;;;;;;;;;;487.30;2380.80;;;;;;5072748;28;19987;-57
2022/08/11 02:55:00;;;;;;;;;;;487.30;2380.80;;;;;;5072518;28;19915;-57
2022/08/11 02:57:41;;;;;;;;;;;487.30;2380.80;;;;;;5072876;28;19908;-55
2022/08/11 03:00:08;;;;;;;;;;;487.20;2380.80;;;;;;5072344;28;19934;-58
2022/08/11 03:02:46;;;;;;;;;;;487.10;2380.80;;;;;;5073153;28;19921;-56
2022/08/11 03:05:19;;;;;;;;;;;487.00;2380.80;;;;;;5072690;28;19909;-56
2022/08/11 03:08:03;;;;;;;;;;;487.00;2380.80;;;;;;5072791;28;20062;-58
2022/08/11 03:10:32;;;;;;;;;;;487.00;2380.80;;;;;;5071857;28;20077;-56
2022/08/11 03:19:03;;;;;;;;;;;486.80;2380.80;;;;;;5072603;28;19918;-56
2022/08/11 03:21:34;;;;;;;;;;;486.90;2380.80;;;;;;5071617;28;20003;-56
2022/08/11 03:24:10;;;;;;;;;;;486.80;2380.80;;;;;;5072055;28;19909;-56
2022/08/11 03:26:46;;;;;;;;;;;486.80;2380.80;;;;;;5071999;28;19908;-57
2022/08/11 03:29:30;;;;;;;;;;;486.70;2380.80;;;;;;5072344;28;19909;-57
2022/08/11 03:32:00;;;;;;;;;;;486.80;2380.80;;;;;;5071861;28;19920;-56
2022/08/11 03:34:28;;;;;;;;;;;486.80;2380.80;;;;;;5071658;28;19916;-56
2022/08/11 03:37:00;;;;;;;;;;;486.90;2380.80;;;;;;5071724;28;19923;-55
2022/08/11 03:39:41;;;;;;;;;;;486.90;2380.80;;;;;;5071681;28;20337;-56
2022/08/11 03:42:09;;;;;;;;;;;486.90;2380.80;;;;;;5071729;28;19916;-56
2022/08/11 03:44:44;;;;;;;;;;;486.90;2380.80;;;;;;5071921;28;20038;-55
2022/08/11 03:47:18;;;;;;;;;;;487.00;2380.80;;;;;;5071712;28;19931;-56
2022/08/11 03:49:56;;;;;;;;;;;486.90;2380.80;;;;;;5070996;28;20398;-55
2022/08/11 03:52:26;;;;;;;;;;;487.00;2380.80;;;;;;5071732;28;20289;-56
2022/08/11 03:54:55;;;;;;;;;;;487.00;2380.80;;;;;;5071649;28;19909;-56
2022/08/11 03:57:39;;;;;;;;;;;487.00;2380.80;;;;;;5071913;28;20296;-55
2022/08/11 04:00:19;;;;;;;;;;;487.00;2380.80;;;;;;5071204;28;19919;-57
2022/08/11 04:02:57;;;;;;;;;;;487.10;2380.80;;;;;;5071637;28;19955;-57
2022/08/11 04:05:54;;;;;;;;;;;487.10;2380.80;;;;;;5071534;28;20007;-56
2022/08/11 04:08:23;;;;;;;;;;;487.10;2380.80;;;;;;5029261;28;19913;-56
2022/08/11 04:10:51;;;;;;;;;;;487.10;2380.80;;;;;;5029045;28;19928;-56
2022/08/11 04:13:35;;;;;;;;;;;487.20;2380.80;;;;;;5029230;28;20023;-56
2022/08/11 04:16:03;;;;;;;;;;;487.20;2380.80;;;;;;5029496;28;19990;-56
2022/08/11 04:18:39;;;;;;;;;;;512.00;2380.80;;;;;;5029135;28;19916;-56
2022/08/11 04:21:05;;;;;;;;;;;512.10;2380.80;;;;;;5029469;28;19932;-56
2022/08/11 04:23:42;;;;;;;;;;;512.20;2380.80;;;;;;5029342;28;19909;-56
2022/08/11 04:26:32;;;;;;;;;;;512.10;2380.80;;;;;;5028766;28;20365;-55
2022/08/11 04:28:58;;;;;;;;;;;512.10;2380.80;;;;;;5029036;28;19909;-56
2022/08/11 04:31:32;;;;;;;;;;;512.20;2380.80;;;;;;5028876;28;20016;-56
2022/08/11 04:34:12;;;;;;;;;;;512.20;2380.80;;;;;;5028514;28;19913;-56
2022/08/11 04:39:48;;;;;;;;;;;512.20;2380.80;;;;;;5029076;28;20398;-56
2022/08/11 04:45:03;;;;;;;;;;;512.30;2380.80;;;;;;5067818;28;20317;-56
2022/08/11 05:02:09;;;;;;;;;;;589.30;2432.00;;;;;;5070647;28;19932;-54
2022/08/11 05:07:48;;;;;;;;;;;666.30;2048.00;;;;;;5070743;28;19915;-56
2022/08/11 05:10:13;;;;;;;;;;;717.10;1894.40;;;;;;5069932;28;19927;-56
2022/08/11 05:12:50;;;;;;;;;;;743.30;1689.60;;;;;;5070423;28;19908;-56
2022/08/11 05:34:58;;;;;;;;;;;947.60;1203.20;;;;;;5076952;28;20381;-58
2022/08/11 05:37:33;;;;;;;;;;;998.50;1152.00;;;;;;5078621;28;19919;-60
2022/08/11 05:56:55;;;;;;;;;;;896.90;1228.80;;;;;;5080093;28;20373;-57
2022/08/11 05:59:22;;;;;;;;;;;947.80;1152.00;;;;;;5082552;28;19916;-57
2022/08/11 06:01:48;;;;;;;;;;;922.20;1228.80;;;;;;5081228;28;20481;-56
2022/08/11 06:04:24;;;;;;;;;;;948.00;1177.60;;;;;;5083353;28;20003;-57
2022/08/11 06:06:53;;;;;;;;;;;998.90;1126.40;;;;;;5083487;28;20003;-56
2022/08/11 06:09:23;;;;;;;;;;;1024.90;1049.60;;;;;;5082096;28;19913;-56
2022/08/11 06:11:49;;;;;;;;;;;1050.20;1049.60;;;;;;5083083;28;20324;-58
2022/08/11 06:14:15;;;;;;;;;;;1050.30;1049.60;;;;;;5091069;28;19918;-60
2022/08/11 06:16:41;;;;;;;;;;;1100.90;998.40;;;;;;5090992;28;19998;-58
2022/08/11 06:19:07;;;;;;;;;;;1101.30;972.80;;;;;;5090676;28;19923;-60
2022/08/11 06:21:35;;;;;;;;;;;1101.50;972.80;;;;;;5075730;28;20462;-59
2022/08/11 06:24:03;;;;;;;;;;;1101.70;972.80;;;;;;5071425;28;20327;-60
2022/08/11 06:26:28;;;;;;;;;;;1126.70;972.80;;;;;;5072237;28;19999;-61
2022/08/11 06:28:56;;;;;;;;;;;1127.10;947.20;;;;;;5073519;28;19951;-60
2022/08/11 06:31:23;;;;;;;;;;;1126.60;972.80;;;;;;5073009;28;19985;-55
2022/08/11 06:33:54;;;;;;;;;;;1126.90;972.80;;;;;;5073234;28;20050;-56
2022/08/11 06:36:43;;;;;;;;;;;1177.60;896.00;;;;;;5073133;28;19908;-59
2022/08/11 06:39:08;;;;;;;;;;;1177.70;870.40;;;;;;5011147;28;19972;-60
2022/08/11 06:41:44;;;;;;;;;;;1152.90;896.00;;;;;;5011181;28;19945;-59
2022/08/11 06:44:12;;;;;;;;;;;1178.20;870.40;;;;;;5011039;28;19909;-56
2022/08/11 06:46:39;;;;;;;;;;;1178.30;870.40;;;;;;5011046;28;20400;-57
2022/08/11 06:52:00;;;;;;;;;;;1126.60;947.20;;;;;;5011103;28;20024;-57
2022/08/11 06:54:28;;;;;;;;;;;1152.60;896.00;;;;;;5011180;28;19910;-61
2022/08/11 07:02:32;;;;;;;;;;;1178.30;844.80;;;;;;5011040;28;19975;-60
2022/08/11 07:05:03;;;;;;;;;;;1178.10;844.80;;;;;;5010728;28;20368;-60
2022/08/11 07:16:01;;;;;;;;;;;1203.60;819.20;;;;;;5038023;28;19916;-61
2022/08/11 07:29:54;;;;;;;;;;;1229.30;819.20;;;;;;5072058;28;19930;-62
2022/08/11 07:32:28;;;;;;;;;;;1229.50;793.60;;;;;;5072090;28;19916;-61
2022/08/11 07:35:15;;;;;;;;;;;1254.40;819.20;;;;;;5069577;28;19916;-59
2022/08/11 07:37:46;;;;;;;;;;;1254.40;819.20;;;;;;5069883;28;19947;-59
2022/08/11 07:40:12;;;;;;;;;;;1254.40;819.20;;;;;;5069972;28;19912;-58
2022/08/11 07:42:40;;;;;;;;;;;1229.40;819.20;;;;;;5069802;28;19909;-60
2022/08/11 07:53:23;;;;;;;;;;;1254.80;819.20;;;;;;5070139;28;19919;-61
2022/08/11 07:55:49;;;;;;;;;;;1229.00;819.20;;;;;;5069432;28;19908;-60
2022/08/11 08:20:16;;;;;;;;;;;1101.00;896.00;;;;;;5069438;28;20015;-62
2022/08/11 08:22:42;;;;;;;;;;;1075.40;921.60;;;;;;5069240;28;19919;-57
2022/08/11 08:25:08;;;;;;;;;;;1126.50;896.00;;;;;;5068983;28;19913;-61
2022/08/11 08:27:34;;;;;;;;;;;1126.90;870.40;;;;;;5068682;28;19919;-56
2022/08/11 08:32:45;;;;;;;;;;;1127.10;844.80;;;;;;5069360;28;19923;-55
2022/08/11 08:35:11;;;;;;;;;;;1126.50;870.40;;;;;;5070036;28;19909;-56
2022/08/11 08:37:37;;;;;;;;;;;1101.40;870.40;;;;;;5070948;28;19909;-56
2022/08/11 08:40:03;;;;;;;;;;;1050.00;921.60;;;;;;5071050;28;20350;-59
2022/08/11 08:42:30;;;;;;;;;;;998.80;972.80;;;;;;5070692;28;19909;-55
2022/08/11 08:44:58;;;;;;;;;;;948.10;998.40;;;;;;5071223;28;19915;-56
2022/08/11 08:47:24;;;;;;;;;;;922.40;998.40;;;;;;5071187;28;19908;-59
2022/08/11 08:49:54;;;;;;;;;;;921.60;1049.60;;;;;;5070778;28;19959;-59
2022/08/11 08:52:22;;;;;;;;;;;896.60;1049.60;;;;;;5070972;28;19915;-59
2022/08/11 08:54:52;;;;;;;;;;;871.30;1075.20;;;;;;5070907;28;19915;-61
2022/08/11 08:57:20;;;;;;;;;;;870.90;1100.80;;;;;;5070660;28;20342;-56
2022/08/11 08:59:47;;;;;;;;;;;845.70;1152.00;;;;;;5070893;28;19995;-60
2022/08/11 09:02:13;;;;;;;;;;;845.00;1177.60;;;;;;5069024;28;19932;-57
2022/08/11 09:04:39;;;;;;;;;;;844.90;1177.60;;;;;;5068612;28;19932;-55
2022/08/11 09:07:11;;;;;;;;;;;845.00;1152.00;;;;;;5068907;28;19958;-58
2022/08/11 09:09:40;;;;;;;;;;;845.20;1152.00;;;;;;5068437;28;20393;-57
2022/08/11 09:12:06;;;;;;;;;;;845.10;1152.00;;;;;;5068694;28;19912;-58
2022/08/11 09:17:18;;;;;;;;;;;819.80;1126.40;;;;;;5068854;28;20273;-56
2022/08/11 09:19:45;;;;;;;;;;;794.40;1177.60;;;;;;5068241;28;19908;-55
2022/08/11 09:27:40;;;;;;;;;;;819.80;1100.80;;;;;;5068358;28;19919;-55
2022/08/11 09:30:07;;;;;;;;;;;819.50;1100.80;;;;;;5067813;28;20354;-54
2022/08/11 09:32:33;;;;;;;;;;;819.80;1100.80;;;;;;5068125;28;19921;-57
2022/08/11 09:35:00;;;;;;;;;;;819.60;1126.40;;;;;;5071728;28;19920;-55
2022/08/11 09:40:27;;;;;;;;;;;819.90;1100.80;;;;;;5072379;28;19923;-58
2022/08/11 09:45:38;;;;;;;;;;;819.70;1126.40;;;;;;5069893;28;20382;-54
2022/08/11 09:48:04;;;;;;;;;;;819.60;1152.00;;;;;;5072067;28;19913;-57
2022/08/11 09:50:33;;;;;;;;;;;819.20;1152.00;;;;;;5071710;28;19920;-58
2022/08/11 09:53:04;;;;;;;;;;;819.30;1152.00;;;;;;5071924;28;19916;-59
2022/08/11 09:55:31;;;;;;;;;;;819.70;1152.00;;;;;;5070859;28;19916;-58
2022/08/11 09:58:12;;;;;;;;;;;819.80;1126.40;;;;;;5067780;28;19947;-56
2022/08/11 10:00:39;;;;;;;;;;;819.80;1100.80;;;;;;5070116;28;20385;-57
2022/08/11 10:03:10;;;;;;;;;;;819.80;1126.40;;;;;;5071053;28;19932;-57
2022/08/11 10:08:25;;;;;;;;;;;844.80;1126.40;;;;;;5071347;28;19919;-57
2022/08/11 10:10:52;;;;;;;;;;;820.10;1100.80;;;;;;5070681;28;19928;-58
2022/08/11 10:13:24;;;;;;;;;;;819.30;1126.40;;;;;;5071397;28;20318;-56
2022/08/11 10:15:53;;;;;;;;;;;819.50;1100.80;;;;;;5071086;28;20002;-56
2022/08/11 10:18:41;;;;;;;;;;;794.50;1075.20;;;;;;5071400;28;20285;-55
2022/08/11 10:21:27;;;;;;;;;;;794.00;1100.80;;;;;;5070424;28;19912;-55
2022/08/11 10:26:53;;;;;;;;;;;768.90;1100.80;;;;;;5072984;28;19954;-57
2022/08/11 10:35:13;;;;;;;;;;;793.90;1152.00;;;;;;5071528;28;19958;-54
2022/08/11 10:37:40;;;;;;;;;;;768.60;1100.80;;;;;;5071674;28;19920;-54
2022/08/11 10:40:06;;;;;;;;;;;768.60;1100.80;;;;;;5071359;28;19909;-58
2022/08/11 10:48:01;;;;;;;;;;;793.90;1100.80;;;;;;5071283;28;19954;-58
2022/08/11 10:58:49;;;;;;;;;;;794.50;1126.40;;;;;;5072871;28;19920;-57
2022/08/11 11:01:23;;;;;;;;;;;793.90;1126.40;;;;;;5077441;28;19921;-58
2022/08/11 11:03:54;;;;;;;;;;;793.70;1152.00;;;;;;5069527;28;19920;-54
2022/08/11 11:06:24;;;;;;;;;;;793.60;1152.00;;;;;;5069985;28;19909;-57
2022/08/11 11:08:52;;;;;;;;;;;768.10;1152.00;;;;;;5072609;28;20350;-57
2022/08/11 11:11:18;;;;;;;;;;;743.20;1152.00;;;;;;5072439;28;19923;-57
2022/08/11 11:19:22;;;;;;;;;;;768.70;1100.80;;;;;;5075600;28;19915;-56
2022/08/11 11:21:50;;;;;;;;;;;793.60;1126.40;;;;;;5075121;28;20376;-56
2022/08/11 11:24:32;;;;;;;;;;;793.80;1100.80;;;;;;5075061;28;20350;-55
2022/08/11 11:27:04;;;;;;;;;;;794.50;1075.20;;;;;;5072525;28;19909;-54
2022/08/11 11:29:41;;;;;;;;;;;819.30;1075.20;;;;;;5070740;28;19920;-55
2022/08/11 11:32:07;;;;;;;;;;;819.60;1049.60;;;;;;5068859;28;20392;-57
2022/08/11 11:34:52;;;;;;;;;;;819.40;1049.60;;;;;;5070883;28;19909;-57
2022/08/11 11:37:17;;;;;;;;;;;794.40;1075.20;;;;;;5069810;28;19908;-56
2022/08/11 11:39:44;;;;;;;;;;;793.80;1100.80;;;;;;5070691;28;19908;-56
2022/08/11 11:42:10;;;;;;;;;;;793.60;1126.40;;;;;;5070569;28;20293;-56
2022/08/11 11:44:42;;;;;;;;;;;768.60;1126.40;;;;;;5070063;28;19909;-54
2022/08/11 11:47:10;;;;;;;;;;;768.10;1126.40;;;;;;5067899;28;19982;-56
2022/08/11 11:49:39;;;;;;;;;;;768.10;1126.40;;;;;;5070230;28;19909;-55
2022/08/11 11:52:05;;;;;;;;;;;768.20;1126.40;;;;;;5067636;28;19913;-56
2022/08/11 11:54:35;;;;;;;;;;;768.00;1126.40;;;;;;5069080;28;19963;-57
2022/08/11 12:01:14;;;;;;;;;;;768.20;1126.40;;;;;;5069559;28;19908;-55
2022/08/11 12:02:32;;;;;;;;;;;793.60;1152.00;;;;;;5070160;28;20324;-57
2022/08/11 12:05:00;;;;;;;;;;;768.10;1126.40;;;;;;5070899;28;19908;-53
2022/08/11 12:10:10;;;;;;;;;;;768.10;1152.00;;;;;;5071556;28;20385;-55
2022/08/11 12:15:20;;;;;;;;;;;768.60;1126.40;;;;;;5071369;28;20003;-58
2022/08/11 12:17:46;;;;;;;;;;;768.90;1126.40;;;;;;5071517;28;19952;-57
2022/08/11 12:20:13;;;;;;;;;;;768.90;1100.80;;;;;;5071533;28;19999;-64
2022/08/11 12:28:08;;;;;;;;;;;794.00;1100.80;;;;;;5071016;28;19950;-57
2022/08/11 12:30:34;;;;;;;;;;;793.60;1100.80;;;;;;5071214;28;19963;-63
2022/08/11 12:32:59;;;;;;;;;;;768.90;1075.20;;;;;;5071089;28;19916;-57
2022/08/11 12:35:25;;;;;;;;;;;768.50;1100.80;;;;;;5069482;28;19962;-63
2022/08/11 12:37:59;;;;;;;;;;;768.40;1075.20;;;;;;5069458;28;19916;-58
2022/08/11 12:45:58;;;;;;;;;;;768.40;1126.40;;;;;;5071326;28;19915;-60
2022/08/11 12:53:59;;;;;;;;;;;768.00;1126.40;;;;;;5071554;28;20368;-59
2022/08/11 13:05:03;;;;;;;;;;;768.30;1100.80;;;;;;5071310;28;20296;-56
2022/08/11 13:07:31;;;;;;;;;;;768.10;1126.40;;;;;;5068899;28;20326;-58
2022/08/11 13:09:57;;;;;;;;;;;768.10;1100.80;;;;;;5072611;28;20418;-57
2022/08/11 13:15:09;;;;;;;;;;;743.10;1126.40;;;;;;5072675;28;20007;-61
2022/08/11 13:17:35;;;;;;;;;;;743.10;1126.40;;;;;;5073057;28;19912;-56
2022/08/11 13:20:01;;;;;;;;;;;743.10;1126.40;;;;;;5072068;28;20277;-57
2022/08/11 13:22:27;;;;;;;;;;;743.10;1126.40;;;;;;5072404;28;19915;-57
2022/08/11 13:24:54;;;;;;;;;;;743.10;1100.80;;;;;;5072582;28;20011;-57
2022/08/11 13:27:20;;;;;;;;;;;743.00;1152.00;;;;;;5072265;28;19912;-57
2022/08/11 13:29:46;;;;;;;;;;;743.10;1126.40;;;;;;5072315;28;19909;-59
2022/08/11 13:32:12;;;;;;;;;;;743.30;1126.40;;;;;;5072601;28;19920;-58
2022/08/11 13:34:41;;;;;;;;;;;743.30;1100.80;;;;;;5071327;28;19909;-60
2022/08/11 13:37:07;;;;;;;;;;;743.20;1126.40;;;;;;5072404;28;19916;-57
2022/08/11 13:39:34;;;;;;;;;;;743.30;1126.40;;;;;;5072167;28;19943;-62
2022/08/11 13:42:01;;;;;;;;;;;768.10;1126.40;;;;;;5072009;28;19915;-56
2022/08/11 13:44:28;;;;;;;;;;;743.30;1126.40;;;;;;5072141;28;19913;-57
2022/08/11 13:46:59;;;;;;;;;;;743.00;1126.40;;;;;;5071954;28;19916;-61
2022/08/11 13:49:26;;;;;;;;;;;743.10;1126.40;;;;;;5072152;28;19908;-57
2022/08/11 13:51:53;;;;;;;;;;;742.90;1152.00;;;;;;5071598;28;20007;-57
2022/08/11 13:54:20;;;;;;;;;;;743.00;1177.60;;;;;;5071754;28;19916;-59
2022/08/11 13:56:47;;;;;;;;;;;742.90;1152.00;;;;;;5071844;28;19909;-58
2022/08/11 13:59:13;;;;;;;;;;;742.90;1152.00;;;;;;5071604;28;19915;-58
2022/08/11 14:02:05;;;;;;;;;;;742.70;1152.00;;;;;;5070608;28;19959;-58
2022/08/11 14:04:54;;;;;;;;;;;742.60;1177.60;;;;;;5068286;28;19974;-61
2022/08/11 14:07:23;;;;;;;;;;;742.40;1177.60;;;;;;5060465;28;19912;-58
2022/08/11 14:09:54;;;;;;;;;;;742.60;1177.60;;;;;;5070272;28;20011;-58
2022/08/11 14:15:29;;;;;;;;;;;742.50;1228.80;;;;;;5072444;28;19923;-57
2022/08/11 14:18:02;;;;;;;;;;;742.40;1228.80;;;;;;5072120;28;20013;-63
2022/08/11 14:22:05;;;;;;;;;;;717.70;1203.20;;;;;;5070670;28;19923;-57
2022/08/11 14:23:15;;;;;;;;;;;717.50;1203.20;;;;;;5071168;28;19978;-56
2022/08/11 14:26:22;;;;;;;;;;;717.60;1203.20;;;;;;5070779;28;19915;-57
2022/08/11 14:28:26;;;;;;;;;;;717.60;1203.20;;;;;;5069575;28;20092;-57
2022/08/11 14:30:55;;;;;;;;;;;717.70;1203.20;;;;;;5068112;28;20023;-61
2022/08/11 14:33:20;;;;;;;;;;;717.70;1203.20;;;;;;5071037;28;19962;-57
2022/08/11 14:35:46;;;;;;;;;;;742.40;1228.80;;;;;;5070752;28;19955;-57
2022/08/11 14:38:12;;;;;;;;;;;717.70;1177.60;;;;;;5070915;28;19908;-57
2022/08/11 14:48:51;;;;;;;;;;;717.40;1228.80;;;;;;5070282;28;19981;-57
2022/08/11 14:51:20;;;;;;;;;;;717.40;1228.80;;;;;;5070449;28;19928;-56
2022/08/11 14:53:46;;;;;;;;;;;717.50;1228.80;;;;;;5070529;28;19913;-55
2022/08/11 14:58:56;;;;;;;;;;;717.50;1254.40;;;;;;5070010;28;20371;-56
2022/08/11 15:04:23;;;;;;;;;;;717.50;1254.40;;;;;;5028838;28;20629;-58
2022/08/11 15:06:49;;;;;;;;;;;717.70;1254.40;;;;;;5061890;28;19952;-56
2022/08/11 15:09:14;;;;;;;;;;;742.40;1280.00;;;;;;5070553;28;19912;-57
2022/08/11 15:17:09;;;;;;;;;;;717.30;1254.40;;;;;;5072112;28;20286;-57
2022/08/11 15:19:36;;;;;;;;;;;717.40;1254.40;;;;;;5072056;28;19919;-57
2022/08/11 15:24:46;;;;;;;;;;;717.40;1254.40;;;;;;5073138;28;20650;-61
2022/08/11 15:38:12;;;;;;;;;;;717.60;1228.80;;;;;;5072057;28;19916;-56
2022/08/11 15:46:32;;;;;;;;;;;717.40;1254.40;;;;;;5072540;28;19947;-55
2022/08/11 15:48:59;;;;;;;;;;;717.50;1254.40;;;;;;5071857;28;19909;-64
2022/08/11 15:51:32;;;;;;;;;;;717.30;1228.80;;;;;;5071771;28;19917;-64
2022/08/11 15:53:58;;;;;;;;;;;717.40;1228.80;;;;;;5071672;28;19995;-63
2022/08/11 15:56:26;;;;;;;;;;;717.40;1228.80;;;;;;5071415;28;19915;-63
2022/08/11 16:04:25;;;;;;;;;;;717.70;1203.20;;;;;;5071935;28;19923;-55
2022/08/11 16:06:53;;;;;;;;;;;742.40;1228.80;;;;;;5071327;28;19909;-56
2022/08/11 16:09:21;;;;;;;;;;;742.40;1228.80;;;;;;5071399;28;19952;-56
2022/08/11 16:11:48;;;;;;;;;;;742.40;1203.20;;;;;;5071155;28;19966;-64
2022/08/11 16:16:59;;;;;;;;;;;717.60;1203.20;;;;;;5071433;28;19970;-64
2022/08/11 16:19:27;;;;;;;;;;;717.70;1203.20;;;;;;5071375;28;19912;-56
2022/08/11 16:21:54;;;;;;;;;;;717.70;1203.20;;;;;;5071282;28;19944;-57
2022/08/11 16:24:21;;;;;;;;;;;717.70;1203.20;;;;;;5070836;28;20427;-57
2022/08/11 16:26:48;;;;;;;;;;;717.70;1203.20;;;;;;5070667;28;19913;-58
2022/08/11 16:29:14;;;;;;;;;;;717.70;1203.20;;;;;;5071029;28;20328;-56
2022/08/11 16:31:40;;;;;;;;;;;717.50;1203.20;;;;;;5067974;28;19920;-60
2022/08/11 16:38:33;;;;;;;;;;;717.60;1228.80;;;;;;5071002;28;20026;-57
2022/08/11 16:39:40;;;;;;;;;;;717.20;1203.20;;;;;;5071072;28;19962;-57
2022/08/11 16:47:41;;;;;;;;;;;717.10;1228.80;;;;;;5037138;28;20003;-58
2022/08/11 16:50:08;;;;;;;;;;;717.00;1228.80;;;;;;5038032;28;19951;-56
2022/08/11 16:52:33;;;;;;;;;;;692.10;1177.60;;;;;;5037047;28;20287;-57
2022/08/11 16:55:02;;;;;;;;;;;692.10;1177.60;;;;;;5036326;28;19934;-57
2022/08/11 17:00:23;;;;;;;;;;;691.80;1203.20;;;;;;5027741;28;20320;-57
2022/08/11 17:14:06;;;;;;;;;;;691.50;1228.80;;;;;;5028411;28;19935;-57
2022/08/11 17:16:33;;;;;;;;;;;691.60;1228.80;;;;;;5026208;28;19932;-59
2022/08/11 17:18:58;;;;;;;;;;;691.50;1254.40;;;;;;5026167;28;19995;-57
2022/08/11 17:21:26;;;;;;;;;;;691.40;1280.00;;;;;;5032005;28;20007;-56
2022/08/11 17:23:57;;;;;;;;;;;691.40;1280.00;;;;;;5046262;28;20011;-64
2022/08/11 17:26:23;;;;;;;;;;;691.30;1305.60;;;;;;5046069;28;19912;-57
2022/08/11 17:28:52;;;;;;;;;;;691.20;1305.60;;;;;;5045319;28;19921;-59
2022/08/11 17:36:50;;;;;;;;;;;666.30;1331.20;;;;;;5047166;28;19950;-57
2022/08/11 17:39:15;;;;;;;;;;;666.20;1382.40;;;;;;5048374;28;19913;-61
2022/08/11 17:49:55;;;;;;;;;;;665.60;1408.00;;;;;;5047965;28;20321;-57
2022/08/11 18:00:37;;;;;;;;;;;640.40;1408.00;;;;;;5051708;28;19958;-57
2022/08/11 18:05:48;;;;;;;;;;;640.20;1408.00;;;;;;5051718;28;19915;-65
